sensor_id;sensor_type;location;lat;lon;timestamp;temperature;humidity
35970;DHT22;22448;51.298;6.430;2022-12-07T00:01:30;3.90;99.90
35970;DHT22;22448;51.298;6.430;2022-12-07T00:03:59;3.90;99.90
35970;DHT22;22448;51.298;6.430;2022-12-07T00:06:38;3.90;99.90
35970;DHT22;22448;51.298;6.430;2022-12-07T00:09:07;3.90;99.90
35970;DHT22;22448;51.298;6.430;2022-12-07T00:11:34;4.00;99.90
35970;DHT22;22448;51.298;6.430;2022-12-07T00:14:04;4.00;99.90
35970;DHT22;22448;51.298;6.430;2022-12-07T00:16:33;4.00;99.90
35970;DHT22;22448;51.298;6.430;2022-12-07T00:19:01;4.00;99.90
35970;DHT22;22448;51.298;6.430;2022-12-07T00:21:31;4.10;99.90
35970;DHT22;22448;51.298;6.430;2022-12-07T00:23:58;4.10;99.90
35970;DHT22;22448;51.298;6.430;2022-12-07T00:26:38;4.10;99.90
35970;DHT22;22448;51.298;6.430;2022-12-07T00:29:25;4.20;99.90
35970;DHT22;22448;51.298;6.430;2022-12-07T00:31:52;4.10;99.90
35970;DHT22;22448;51.298;6.430;2022-12-07T00:34:20;4.10;99.90
35970;DHT22;22448;51.298;6.430;2022-12-07T00:36:48;4.20;99.90
35970;DHT22;22448;51.298;6.430;2022-12-07T00:39:16;4.20;99.90
35970;DHT22;22448;51.298;6.430;2022-12-07T00:41:43;4.20;99.90
35970;DHT22;22448;51.298;6.430;2022-12-07T00:44:10;4.10;99.90
35970;DHT22;22448;51.298;6.430;2022-12-07T00:46:37;4.10;99.90
35970;DHT22;22448;51.298;6.430;2022-12-07T00:49:04;4.10;99.90
35970;DHT22;22448;51.298;6.430;2022-12-07T00:51:31;4.00;99.90
35970;DHT22;22448;51.298;6.430;2022-12-07T00:53:58;4.00;99.90
35970;DHT22;22448;51.298;6.430;2022-12-07T00:56:27;4.00;99.90
35970;DHT22;22448;51.298;6.430;2022-12-07T00:58:59;3.90;99.90
35970;DHT22;22448;51.298;6.430;2022-12-07T01:01:32;3.80;99.90
35970;DHT22;22448;51.298;6.430;2022-12-07T01:03:59;3.80;99.90
35970;DHT22;22448;51.298;6.430;2022-12-07T01:06:30;3.70;99.90
35970;DHT22;22448;51.298;6.430;2022-12-07T01:08:58;3.70;99.90
35970;DHT22;22448;51.298;6.430;2022-12-07T01:11:27;3.70;99.90
35970;DHT22;22448;51.298;6.430;2022-12-07T01:13:56;3.70;99.90
35970;DHT22;22448;51.298;6.430;2022-12-07T01:16:27;3.70;99.90
35970;DHT22;22448;51.298;6.430;2022-12-07T01:18:55;3.70;99.90
35970;DHT22;22448;51.298;6.430;2022-12-07T01:21:25;3.80;99.90
35970;DHT22;22448;51.298;6.430;2022-12-07T01:23:53;3.80;99.90
35970;DHT22;22448;51.298;6.430;2022-12-07T01:26:22;3.80;99.90
35970;DHT22;22448;51.298;6.430;2022-12-07T01:28:50;3.80;99.90
35970;DHT22;22448;51.298;6.430;2022-12-07T01:31:20;3.80;99.90
35970;DHT22;22448;51.298;6.430;2022-12-07T01:33:58;3.80;99.90
35970;DHT22;22448;51.298;6.430;2022-12-07T01:36:26;3.80;99.90
35970;DHT22;22448;51.298;6.430;2022-12-07T01:38:56;3.80;99.90
35970;DHT22;22448;51.298;6.430;2022-12-07T01:41:27;3.80;99.90
35970;DHT22;22448;51.298;6.430;2022-12-07T01:44:23;3.70;99.90
35970;DHT22;22448;51.298;6.430;2022-12-07T01:46:56;3.70;99.90
35970;DHT22;22448;51.298;6.430;2022-12-07T01:52:15;3.70;99.90
35970;DHT22;22448;51.298;6.430;2022-12-07T01:54:47;3.70;99.90
35970;DHT22;22448;51.298;6.430;2022-12-07T01:57:17;3.70;99.90
35970;DHT22;22448;51.298;6.430;2022-12-07T01:59:45;3.60;99.90
35970;DHT22;22448;51.298;6.430;2022-12-07T02:02:20;3.60;99.90
35970;DHT22;22448;51.298;6.430;2022-12-07T02:04:51;3.60;99.90
35970;DHT22;22448;51.298;6.430;2022-12-07T02:07:20;3.60;99.90
35970;DHT22;22448;51.298;6.430;2022-12-07T02:09:48;3.60;99.90
35970;DHT22;22448;51.298;6.430;2022-12-07T02:12:15;3.50;99.90
35970;DHT22;22448;51.298;6.430;2022-12-07T02:14:42;3.50;99.90
35970;DHT22;22448;51.298;6.430;2022-12-07T02:17:21;3.50;99.90
35970;DHT22;22448;51.298;6.430;2022-12-07T02:28:33;3.20;99.90
35970;DHT22;22448;51.298;6.430;2022-12-07T02:31:08;3.20;99.90
35970;DHT22;22448;51.298;6.430;2022-12-07T02:33:50;3.30;99.90
35970;DHT22;22448;51.298;6.430;2022-12-07T02:36:27;3.30;99.90
35970;DHT22;22448;51.298;6.430;2022-12-07T02:39:02;3.40;99.90
35970;DHT22;22448;51.298;6.430;2022-12-07T02:41:36;3.40;99.90
35970;DHT22;22448;51.298;6.430;2022-12-07T02:44:07;3.40;99.90
35970;DHT22;22448;51.298;6.430;2022-12-07T02:46:51;3.40;99.90
35970;DHT22;22448;51.298;6.430;2022-12-07T02:49:22;3.40;99.90
35970;DHT22;22448;51.298;6.430;2022-12-07T02:51:52;3.40;99.90
35970;DHT22;22448;51.298;6.430;2022-12-07T02:54:21;3.40;99.90
35970;DHT22;22448;51.298;6.430;2022-12-07T02:57:12;3.30;99.90
35970;DHT22;22448;51.298;6.430;2022-12-07T03:00:05;3.30;99.90
35970;DHT22;22448;51.298;6.430;2022-12-07T03:02:55;3.20;99.90
35970;DHT22;22448;51.298;6.430;2022-12-07T03:08:39;3.20;99.90
35970;DHT22;22448;51.298;6.430;2022-12-07T03:16:37;3.10;99.90
35970;DHT22;22448;51.298;6.430;2022-12-07T03:19:09;3.10;99.90
35970;DHT22;22448;51.298;6.430;2022-12-07T03:21:44;3.10;99.90
35970;DHT22;22448;51.298;6.430;2022-12-07T03:24:44;3.20;99.90
35970;DHT22;22448;51.298;6.430;2022-12-07T03:27:20;3.20;99.90
35970;DHT22;22448;51.298;6.430;2022-12-07T03:29:54;3.30;99.90
35970;DHT22;22448;51.298;6.430;2022-12-07T03:35:05;3.30;99.90
35970;DHT22;22448;51.298;6.430;2022-12-07T03:37:40;3.30;99.90
35970;DHT22;22448;51.298;6.430;2022-12-07T03:40:33;3.20;99.90
35970;DHT22;22448;51.298;6.430;2022-12-07T03:43:02;3.10;99.90
35970;DHT22;22448;51.298;6.430;2022-12-07T03:45:42;3.00;99.90
35970;DHT22;22448;51.298;6.430;2022-12-07T03:48:35;3.00;99.90
35970;DHT22;22448;51.298;6.430;2022-12-07T03:51:19;2.90;99.90
35970;DHT22;22448;51.298;6.430;2022-12-07T03:54:13;2.80;99.90
35970;DHT22;22448;51.298;6.430;2022-12-07T03:56:43;2.80;99.90
35970;DHT22;22448;51.298;6.430;2022-12-07T03:59:12;2.80;99.90
35970;DHT22;22448;51.298;6.430;2022-12-07T04:01:44;2.80;99.90
35970;DHT22;22448;51.298;6.430;2022-12-07T04:04:12;2.80;99.90
35970;DHT22;22448;51.298;6.430;2022-12-07T04:06:39;2.80;99.90
35970;DHT22;22448;51.298;6.430;2022-12-07T04:09:06;2.80;99.90
35970;DHT22;22448;51.298;6.430;2022-12-07T04:11:33;2.90;99.90
35970;DHT22;22448;51.298;6.430;2022-12-07T04:13:59;2.90;99.90
35970;DHT22;22448;51.298;6.430;2022-12-07T04:16:54;2.90;99.90
35970;DHT22;22448;51.298;6.430;2022-12-07T04:19:28;3.00;99.90
35970;DHT22;22448;51.298;6.430;2022-12-07T04:21:56;3.10;99.90
35970;DHT22;22448;51.298;6.430;2022-12-07T04:24:24;3.10;99.90
35970;DHT22;22448;51.298;6.430;2022-12-07T04:26:51;3.10;99.90
35970;DHT22;22448;51.298;6.430;2022-12-07T04:29:19;3.20;99.90
35970;DHT22;22448;51.298;6.430;2022-12-07T04:31:46;3.10;99.90
35970;DHT22;22448;51.298;6.430;2022-12-07T04:34:15;3.10;99.90
35970;DHT22;22448;51.298;6.430;2022-12-07T04:36:42;3.10;99.90
35970;DHT22;22448;51.298;6.430;2022-12-07T04:39:23;3.10;99.90
35970;DHT22;22448;51.298;6.430;2022-12-07T04:41:51;3.10;99.90
35970;DHT22;22448;51.298;6.430;2022-12-07T04:44:19;3.10;99.90
35970;DHT22;22448;51.298;6.430;2022-12-07T04:46:46;3.10;99.90
35970;DHT22;22448;51.298;6.430;2022-12-07T04:49:14;3.10;99.90
35970;DHT22;22448;51.298;6.430;2022-12-07T04:51:43;3.10;99.90
35970;DHT22;22448;51.298;6.430;2022-12-07T04:54:12;3.10;99.90
35970;DHT22;22448;51.298;6.430;2022-12-07T04:56:39;3.00;99.90
35970;DHT22;22448;51.298;6.430;2022-12-07T04:59:06;3.00;99.90
35970;DHT22;22448;51.298;6.430;2022-12-07T05:01:34;3.00;99.90
35970;DHT22;22448;51.298;6.430;2022-12-07T05:04:01;3.00;99.90
35970;DHT22;22448;51.298;6.430;2022-12-07T05:06:28;3.00;99.90
35970;DHT22;22448;51.298;6.430;2022-12-07T05:08:55;3.00;99.90
35970;DHT22;22448;51.298;6.430;2022-12-07T05:11:22;3.00;99.90
35970;DHT22;22448;51.298;6.430;2022-12-07T05:14:25;3.00;99.90
35970;DHT22;22448;51.298;6.430;2022-12-07T05:16:52;3.10;99.90
35970;DHT22;22448;51.298;6.430;2022-12-07T05:19:20;3.10;99.90
35970;DHT22;22448;51.298;6.430;2022-12-07T05:21:47;3.10;99.90
35970;DHT22;22448;51.298;6.430;2022-12-07T05:24:16;3.10;99.90
35970;DHT22;22448;51.298;6.430;2022-12-07T05:26:44;3.20;99.90
35970;DHT22;22448;51.298;6.430;2022-12-07T05:29:13;3.20;99.90
35970;DHT22;22448;51.298;6.430;2022-12-07T05:31:41;3.20;99.90
35970;DHT22;22448;51.298;6.430;2022-12-07T05:34:09;3.20;99.90
35970;DHT22;22448;51.298;6.430;2022-12-07T05:36:36;3.20;99.90
35970;DHT22;22448;51.298;6.430;2022-12-07T05:39:03;3.20;99.90
35970;DHT22;22448;51.298;6.430;2022-12-07T05:41:30;3.20;99.90
35970;DHT22;22448;51.298;6.430;2022-12-07T05:44:29;3.30;99.90
35970;DHT22;22448;51.298;6.430;2022-12-07T05:46:56;3.20;99.90
35970;DHT22;22448;51.298;6.430;2022-12-07T05:49:23;3.30;99.90
35970;DHT22;22448;51.298;6.430;2022-12-07T05:51:50;3.30;99.90
35970;DHT22;22448;51.298;6.430;2022-12-07T05:54:17;3.30;99.90
35970;DHT22;22448;51.298;6.430;2022-12-07T05:56:44;3.30;99.90
35970;DHT22;22448;51.298;6.430;2022-12-07T05:59:11;3.30;99.90
35970;DHT22;22448;51.298;6.430;2022-12-07T06:04:18;3.30;99.90
35970;DHT22;22448;51.298;6.430;2022-12-07T06:06:45;3.30;99.90
35970;DHT22;22448;51.298;6.430;2022-12-07T06:09:12;3.30;99.90
35970;DHT22;22448;51.298;6.430;2022-12-07T06:11:40;3.30;99.90
35970;DHT22;22448;51.298;6.430;2022-12-07T06:14:25;3.30;99.90
35970;DHT22;22448;51.298;6.430;2022-12-07T06:16:52;3.30;99.90
35970;DHT22;22448;51.298;6.430;2022-12-07T06:19:20;3.30;99.90
35970;DHT22;22448;51.298;6.430;2022-12-07T06:21:47;3.40;99.90
35970;DHT22;22448;51.298;6.430;2022-12-07T06:24:15;3.30;99.90
35970;DHT22;22448;51.298;6.430;2022-12-07T06:26:43;3.40;99.90
35970;DHT22;22448;51.298;6.430;2022-12-07T06:29:11;3.40;99.90
35970;DHT22;22448;51.298;6.430;2022-12-07T06:31:39;3.40;99.90
35970;DHT22;22448;51.298;6.430;2022-12-07T06:34:09;3.40;99.90
35970;DHT22;22448;51.298;6.430;2022-12-07T06:36:37;3.40;99.90
35970;DHT22;22448;51.298;6.430;2022-12-07T06:39:04;3.40;99.90
35970;DHT22;22448;51.298;6.430;2022-12-07T06:41:32;3.40;99.90
35970;DHT22;22448;51.298;6.430;2022-12-07T06:43:59;3.40;99.90
35970;DHT22;22448;51.298;6.430;2022-12-07T06:46:26;3.30;99.90
35970;DHT22;22448;51.298;6.430;2022-12-07T06:48:53;3.20;99.90
35970;DHT22;22448;51.298;6.430;2022-12-07T06:51:20;3.10;99.90
35970;DHT22;22448;51.298;6.430;2022-12-07T06:53:47;3.00;99.90
35970;DHT22;22448;51.298;6.430;2022-12-07T06:56:14;2.90;99.90
35970;DHT22;22448;51.298;6.430;2022-12-07T06:58:41;2.80;99.90
35970;DHT22;22448;51.298;6.430;2022-12-07T07:01:10;2.80;99.90
35970;DHT22;22448;51.298;6.430;2022-12-07T07:03:38;2.80;99.90
35970;DHT22;22448;51.298;6.430;2022-12-07T07:06:05;2.80;99.90
35970;DHT22;22448;51.298;6.430;2022-12-07T07:08:35;2.80;99.90
35970;DHT22;22448;51.298;6.430;2022-12-07T07:11:02;2.90;99.90
35970;DHT22;22448;51.298;6.430;2022-12-07T07:13:29;2.90;99.90
35970;DHT22;22448;51.298;6.430;2022-12-07T07:15:57;2.90;99.90
35970;DHT22;22448;51.298;6.430;2022-12-07T07:18:25;2.80;99.90
35970;DHT22;22448;51.298;6.430;2022-12-07T07:20:52;2.70;99.90
35970;DHT22;22448;51.298;6.430;2022-12-07T07:23:20;2.70;99.90
35970;DHT22;22448;51.298;6.430;2022-12-07T07:25:47;2.60;99.90
35970;DHT22;22448;51.298;6.430;2022-12-07T07:28:14;2.50;99.90
35970;DHT22;22448;51.298;6.430;2022-12-07T07:30:42;2.50;99.90
35970;DHT22;22448;51.298;6.430;2022-12-07T07:33:09;2.40;99.90
35970;DHT22;22448;51.298;6.430;2022-12-07T07:35:36;2.40;99.90
35970;DHT22;22448;51.298;6.430;2022-12-07T07:38:03;2.40;99.90
35970;DHT22;22448;51.298;6.430;2022-12-07T07:40:30;2.30;99.90
35970;DHT22;22448;51.298;6.430;2022-12-07T07:42:57;2.30;99.90
35970;DHT22;22448;51.298;6.430;2022-12-07T07:45:26;2.30;99.90
35970;DHT22;22448;51.298;6.430;2022-12-07T07:47:53;2.30;99.90
35970;DHT22;22448;51.298;6.430;2022-12-07T07:50:22;2.30;99.90
35970;DHT22;22448;51.298;6.430;2022-12-07T07:52:49;2.30;99.90
35970;DHT22;22448;51.298;6.430;2022-12-07T07:55:15;2.30;99.90
35970;DHT22;22448;51.298;6.430;2022-12-07T07:57:42;2.30;99.90
35970;DHT22;22448;51.298;6.430;2022-12-07T08:00:16;2.40;99.90
35970;DHT22;22448;51.298;6.430;2022-12-07T08:02:43;2.50;99.90
35970;DHT22;22448;51.298;6.430;2022-12-07T08:05:11;2.60;99.90
35970;DHT22;22448;51.298;6.430;2022-12-07T08:07:39;2.80;99.90
35970;DHT22;22448;51.298;6.430;2022-12-07T08:10:06;2.90;99.90
35970;DHT22;22448;51.298;6.430;2022-12-07T08:12:38;3.00;99.90
35970;DHT22;22448;51.298;6.430;2022-12-07T08:15:26;3.10;99.90
35970;DHT22;22448;51.298;6.430;2022-12-07T08:17:53;3.20;99.90
35970;DHT22;22448;51.298;6.430;2022-12-07T08:20:21;3.20;99.90
35970;DHT22;22448;51.298;6.430;2022-12-07T08:22:47;3.20;99.90
35970;DHT22;22448;51.298;6.430;2022-12-07T08:25:14;3.20;99.90
35970;DHT22;22448;51.298;6.430;2022-12-07T08:27:41;3.20;99.90
35970;DHT22;22448;51.298;6.430;2022-12-07T08:30:09;3.20;99.90
35970;DHT22;22448;51.298;6.430;2022-12-07T08:32:36;3.20;99.90
35970;DHT22;22448;51.298;6.430;2022-12-07T08:35:03;3.30;99.90
35970;DHT22;22448;51.298;6.430;2022-12-07T08:37:31;3.40;99.90
35970;DHT22;22448;51.298;6.430;2022-12-07T08:39:57;3.50;99.90
35970;DHT22;22448;51.298;6.430;2022-12-07T08:42:25;3.60;99.90
35970;DHT22;22448;51.298;6.430;2022-12-07T08:44:57;3.60;99.90
35970;DHT22;22448;51.298;6.430;2022-12-07T08:47:25;3.70;99.90
35970;DHT22;22448;51.298;6.430;2022-12-07T08:49:52;3.60;99.90
35970;DHT22;22448;51.298;6.430;2022-12-07T08:52:20;3.60;99.90
35970;DHT22;22448;51.298;6.430;2022-12-07T08:54:47;3.60;99.90
35970;DHT22;22448;51.298;6.430;2022-12-07T08:57:14;3.50;99.90
35970;DHT22;22448;51.298;6.430;2022-12-07T08:59:41;3.60;99.90
35970;DHT22;22448;51.298;6.430;2022-12-07T09:02:08;3.70;99.90
35970;DHT22;22448;51.298;6.430;2022-12-07T09:04:35;3.80;99.90
35970;DHT22;22448;51.298;6.430;2022-12-07T09:07:03;4.00;99.90
35970;DHT22;22448;51.298;6.430;2022-12-07T09:09:30;4.20;99.90
35970;DHT22;22448;51.298;6.430;2022-12-07T09:11:57;4.20;99.90
35970;DHT22;22448;51.298;6.430;2022-12-07T09:14:24;4.10;99.90
35970;DHT22;22448;51.298;6.430;2022-12-07T09:16:51;4.00;99.90
35970;DHT22;22448;51.298;6.430;2022-12-07T09:19:18;4.00;99.90
35970;DHT22;22448;51.298;6.430;2022-12-07T09:21:45;3.90;99.90
35970;DHT22;22448;51.298;6.430;2022-12-07T09:24:13;4.00;99.90
35970;DHT22;22448;51.298;6.430;2022-12-07T09:26:40;4.10;99.90
35970;DHT22;22448;51.298;6.430;2022-12-07T09:29:07;4.30;99.90
35970;DHT22;22448;51.298;6.430;2022-12-07T09:31:36;4.40;99.90
35970;DHT22;22448;51.298;6.430;2022-12-07T09:34:04;4.50;99.90
35970;DHT22;22448;51.298;6.430;2022-12-07T09:36:33;4.60;99.90
35970;DHT22;22448;51.298;6.430;2022-12-07T09:39:00;4.60;99.90
35970;DHT22;22448;51.298;6.430;2022-12-07T09:41:29;4.60;99.90
35970;DHT22;22448;51.298;6.430;2022-12-07T09:44:19;4.60;99.90
35970;DHT22;22448;51.298;6.430;2022-12-07T09:46:47;4.70;99.90
35970;DHT22;22448;51.298;6.430;2022-12-07T09:49:20;4.70;99.90
35970;DHT22;22448;51.298;6.430;2022-12-07T09:51:47;4.80;99.90
35970;DHT22;22448;51.298;6.430;2022-12-07T09:54:16;4.80;99.90
35970;DHT22;22448;51.298;6.430;2022-12-07T09:56:43;4.90;99.90
35970;DHT22;22448;51.298;6.430;2022-12-07T09:59:17;5.00;99.90
35970;DHT22;22448;51.298;6.430;2022-12-07T10:01:48;5.00;99.90
35970;DHT22;22448;51.298;6.430;2022-12-07T10:04:22;5.00;99.90
35970;DHT22;22448;51.298;6.430;2022-12-07T10:06:51;4.90;99.90
35970;DHT22;22448;51.298;6.430;2022-12-07T10:09:20;4.90;99.90
35970;DHT22;22448;51.298;6.430;2022-12-07T10:12:08;4.90;99.90
35970;DHT22;22448;51.298;6.430;2022-12-07T10:14:38;4.90;99.90
35970;DHT22;22448;51.298;6.430;2022-12-07T10:17:39;4.90;99.90
35970;DHT22;22448;51.298;6.430;2022-12-07T10:20:20;4.90;99.90
35970;DHT22;22448;51.298;6.430;2022-12-07T10:22:55;4.80;99.90
35970;DHT22;22448;51.298;6.430;2022-12-07T10:25:26;4.80;99.90
35970;DHT22;22448;51.298;6.430;2022-12-07T10:28:02;4.70;99.90
35970;DHT22;22448;51.298;6.430;2022-12-07T10:30:30;4.60;99.90
35970;DHT22;22448;51.298;6.430;2022-12-07T10:32:58;4.60;99.90
35970;DHT22;22448;51.298;6.430;2022-12-07T10:35:28;4.70;99.90
35970;DHT22;22448;51.298;6.430;2022-12-07T10:37:58;4.70;99.90
35970;DHT22;22448;51.298;6.430;2022-12-07T10:40:30;4.70;99.90
35970;DHT22;22448;51.298;6.430;2022-12-07T10:43:08;4.80;99.90
35970;DHT22;22448;51.298;6.430;2022-12-07T10:51:37;4.90;99.90
35970;DHT22;22448;51.298;6.430;2022-12-07T10:54:33;4.90;99.90
35970;DHT22;22448;51.298;6.430;2022-12-07T10:57:43;4.90;99.90
35970;DHT22;22448;51.298;6.430;2022-12-07T11:00:24;4.90;99.90
35970;DHT22;22448;51.298;6.430;2022-12-07T11:03:05;4.90;99.90
35970;DHT22;22448;51.298;6.430;2022-12-07T11:16:47;5.40;99.90
35970;DHT22;22448;51.298;6.430;2022-12-07T11:25:02;5.90;99.90
35970;DHT22;22448;51.298;6.430;2022-12-07T11:34:13;6.10;99.90
35970;DHT22;22448;51.298;6.430;2022-12-07T11:36:47;6.10;99.90
35970;DHT22;22448;51.298;6.430;2022-12-07T11:41:52;6.10;99.90
35970;DHT22;22448;51.298;6.430;2022-12-07T11:44:31;6.10;99.90
35970;DHT22;22448;51.298;6.430;2022-12-07T11:52:54;6.30;99.90
35970;DHT22;22448;51.298;6.430;2022-12-07T11:55:41;6.30;99.90
35970;DHT22;22448;51.298;6.430;2022-12-07T11:58:42;6.40;99.90
35970;DHT22;22448;51.298;6.430;2022-12-07T12:01:21;6.50;99.90
35970;DHT22;22448;51.298;6.430;2022-12-07T12:03:56;6.60;99.90
35970;DHT22;22448;51.298;6.430;2022-12-07T12:06:24;6.70;99.90
35970;DHT22;22448;51.298;6.430;2022-12-07T12:09:27;6.70;99.90
35970;DHT22;22448;51.298;6.430;2022-12-07T12:23:19;6.60;99.90
35970;DHT22;22448;51.298;6.430;2022-12-07T12:25:53;6.60;99.90
35970;DHT22;22448;51.298;6.430;2022-12-07T12:28:29;6.50;99.90
35970;DHT22;22448;51.298;6.430;2022-12-07T12:33:52;6.50;99.90
35970;DHT22;22448;51.298;6.430;2022-12-07T12:46:51;6.50;99.90
35970;DHT22;22448;51.298;6.430;2022-12-07T12:51:50;6.50;99.90
35970;DHT22;22448;51.298;6.430;2022-12-07T12:56:51;6.40;99.90
35970;DHT22;22448;51.298;6.430;2022-12-07T13:02:15;6.30;99.90
35970;DHT22;22448;51.298;6.430;2022-12-07T13:04:53;6.30;99.90
35970;DHT22;22448;51.298;6.430;2022-12-07T13:07:51;6.30;99.90
35970;DHT22;22448;51.298;6.430;2022-12-07T13:15:41;6.30;99.90
35970;DHT22;22448;51.298;6.430;2022-12-07T13:18:36;6.30;99.90
35970;DHT22;22448;51.298;6.430;2022-12-07T13:23:37;6.30;99.90
35970;DHT22;22448;51.298;6.430;2022-12-07T13:31:48;6.10;99.90
35970;DHT22;22448;51.298;6.430;2022-12-07T13:37:20;6.10;99.90
35970;DHT22;22448;51.298;6.430;2022-12-07T13:39:51;6.10;99.90
35970;DHT22;22448;51.298;6.430;2022-12-07T13:42:33;6.10;99.90
35970;DHT22;22448;51.298;6.430;2022-12-07T13:45:20;6.20;99.90
35970;DHT22;22448;51.298;6.430;2022-12-07T13:47:58;6.30;99.90
35970;DHT22;22448;51.298;6.430;2022-12-07T13:50:28;6.30;99.90
35970;DHT22;22448;51.298;6.430;2022-12-07T13:52:57;6.30;99.90
35970;DHT22;22448;51.298;6.430;2022-12-07T13:55:25;6.30;99.90
35970;DHT22;22448;51.298;6.430;2022-12-07T13:57:54;6.30;99.90
35970;DHT22;22448;51.298;6.430;2022-12-07T14:00:26;6.40;99.90
35970;DHT22;22448;51.298;6.430;2022-12-07T14:05:28;6.40;99.90
35970;DHT22;22448;51.298;6.430;2022-12-07T14:08:21;6.30;99.90
35970;DHT22;22448;51.298;6.430;2022-12-07T14:13:36;6.30;99.90
35970;DHT22;22448;51.298;6.430;2022-12-07T14:18:51;6.30;99.90
35970;DHT22;22448;51.298;6.430;2022-12-07T14:21:20;6.30;99.90
35970;DHT22;22448;51.298;6.430;2022-12-07T14:24:14;6.30;99.90
35970;DHT22;22448;51.298;6.430;2022-12-07T14:26:42;6.30;99.90
35970;DHT22;22448;51.298;6.430;2022-12-07T14:29:30;6.40;99.90
35970;DHT22;22448;51.298;6.430;2022-12-07T14:32:13;6.40;99.90
35970;DHT22;22448;51.298;6.430;2022-12-07T14:34:53;6.40;99.90
35970;DHT22;22448;51.298;6.430;2022-12-07T14:37:20;6.40;99.90
35970;DHT22;22448;51.298;6.430;2022-12-07T14:39:47;6.40;99.90
35970;DHT22;22448;51.298;6.430;2022-12-07T14:42:14;6.30;99.90
35970;DHT22;22448;51.298;6.430;2022-12-07T14:44:41;6.30;99.90
35970;DHT22;22448;51.298;6.430;2022-12-07T14:47:12;6.30;99.90
35970;DHT22;22448;51.298;6.430;2022-12-07T14:49:58;6.30;99.90
35970;DHT22;22448;51.298;6.430;2022-12-07T14:52:31;6.30;99.90
35970;DHT22;22448;51.298;6.430;2022-12-07T14:55:27;6.20;99.90
35970;DHT22;22448;51.298;6.430;2022-12-07T14:57:55;6.10;99.90
35970;DHT22;22448;51.298;6.430;2022-12-07T15:00:24;6.00;99.90
35970;DHT22;22448;51.298;6.430;2022-12-07T15:02:51;5.80;99.90
35970;DHT22;22448;51.298;6.430;2022-12-07T15:05:18;5.70;99.90
35970;DHT22;22448;51.298;6.430;2022-12-07T15:07:46;5.60;99.90
35970;DHT22;22448;51.298;6.430;2022-12-07T15:10:29;5.50;99.90
35970;DHT22;22448;51.298;6.430;2022-12-07T15:13:02;5.40;99.90
35970;DHT22;22448;51.298;6.430;2022-12-07T15:15:50;5.30;99.90
35970;DHT22;22448;51.298;6.430;2022-12-07T15:18:18;5.20;99.90
35970;DHT22;22448;51.298;6.430;2022-12-07T15:20:45;5.10;99.90
35970;DHT22;22448;51.298;6.430;2022-12-07T15:23:12;5.00;99.90
35970;DHT22;22448;51.298;6.430;2022-12-07T15:25:44;4.90;99.90
35970;DHT22;22448;51.298;6.430;2022-12-07T15:28:12;4.80;99.90
35970;DHT22;22448;51.298;6.430;2022-12-07T15:30:40;4.70;99.90
35970;DHT22;22448;51.298;6.430;2022-12-07T15:33:10;4.60;99.90
35970;DHT22;22448;51.298;6.430;2022-12-07T15:35:44;4.60;99.90
35970;DHT22;22448;51.298;6.430;2022-12-07T15:38:12;4.60;99.90
35970;DHT22;22448;51.298;6.430;2022-12-07T15:40:39;4.50;99.90
35970;DHT22;22448;51.298;6.430;2022-12-07T15:43:08;4.50;99.90
35970;DHT22;22448;51.298;6.430;2022-12-07T15:45:55;4.60;99.90
35970;DHT22;22448;51.298;6.430;2022-12-07T15:48:22;4.60;99.90
35970;DHT22;22448;51.298;6.430;2022-12-07T15:51:05;4.70;99.90
35970;DHT22;22448;51.298;6.430;2022-12-07T15:53:32;4.70;99.90
35970;DHT22;22448;51.298;6.430;2022-12-07T15:56:00;4.80;99.90
35970;DHT22;22448;51.298;6.430;2022-12-07T15:58:27;4.80;99.90
35970;DHT22;22448;51.298;6.430;2022-12-07T16:00:54;4.80;99.90
35970;DHT22;22448;51.298;6.430;2022-12-07T16:03:21;4.80;99.90
35970;DHT22;22448;51.298;6.430;2022-12-07T16:05:51;4.90;99.90
35970;DHT22;22448;51.298;6.430;2022-12-07T16:08:19;4.90;99.90
35970;DHT22;22448;51.298;6.430;2022-12-07T16:10:46;4.90;99.90
35970;DHT22;22448;51.298;6.430;2022-12-07T16:13:13;4.90;99.90
35970;DHT22;22448;51.298;6.430;2022-12-07T16:15:40;4.90;99.90
35970;DHT22;22448;51.298;6.430;2022-12-07T16:18:08;4.90;99.90
35970;DHT22;22448;51.298;6.430;2022-12-07T16:20:35;4.90;99.90
35970;DHT22;22448;51.298;6.430;2022-12-07T16:23:02;4.90;99.90
35970;DHT22;22448;51.298;6.430;2022-12-07T16:25:29;4.90;99.90
35970;DHT22;22448;51.298;6.430;2022-12-07T16:27:55;4.90;99.90
35970;DHT22;22448;51.298;6.430;2022-12-07T16:30:22;4.80;99.90
35970;DHT22;22448;51.298;6.430;2022-12-07T16:32:49;4.80;99.90
35970;DHT22;22448;51.298;6.430;2022-12-07T16:35:17;4.80;99.90
35970;DHT22;22448;51.298;6.430;2022-12-07T16:37:43;4.80;99.90
35970;DHT22;22448;51.298;6.430;2022-12-07T16:40:11;4.80;99.90
35970;DHT22;22448;51.298;6.430;2022-12-07T16:42:38;4.80;99.90
35970;DHT22;22448;51.298;6.430;2022-12-07T16:45:05;4.80;99.90
35970;DHT22;22448;51.298;6.430;2022-12-07T16:47:32;4.80;99.90
35970;DHT22;22448;51.298;6.430;2022-12-07T16:49:59;4.80;99.90
35970;DHT22;22448;51.298;6.430;2022-12-07T16:52:25;4.80;99.90
35970;DHT22;22448;51.298;6.430;2022-12-07T16:54:52;4.70;99.90
35970;DHT22;22448;51.298;6.430;2022-12-07T16:57:19;4.80;99.90
35970;DHT22;22448;51.298;6.430;2022-12-07T16:59:50;4.70;99.90
35970;DHT22;22448;51.298;6.430;2022-12-07T17:02:17;4.70;99.90
35970;DHT22;22448;51.298;6.430;2022-12-07T17:04:44;4.60;99.90
35970;DHT22;22448;51.298;6.430;2022-12-07T17:07:11;4.60;99.90
35970;DHT22;22448;51.298;6.430;2022-12-07T17:09:39;4.60;99.90
35970;DHT22;22448;51.298;6.430;2022-12-07T17:12:06;4.50;99.90
35970;DHT22;22448;51.298;6.430;2022-12-07T17:14:33;4.50;99.90
35970;DHT22;22448;51.298;6.430;2022-12-07T17:17:21;4.40;99.90
35970;DHT22;22448;51.298;6.430;2022-12-07T17:19:48;4.30;99.90
35970;DHT22;22448;51.298;6.430;2022-12-07T17:22:15;4.30;99.90
35970;DHT22;22448;51.298;6.430;2022-12-07T17:24:42;4.20;99.90
35970;DHT22;22448;51.298;6.430;2022-12-07T17:27:09;4.20;99.90
35970;DHT22;22448;51.298;6.430;2022-12-07T17:29:36;4.20;99.90
35970;DHT22;22448;51.298;6.430;2022-12-07T17:32:03;4.20;99.90
35970;DHT22;22448;51.298;6.430;2022-12-07T17:34:30;4.20;99.90
35970;DHT22;22448;51.298;6.430;2022-12-07T17:36:57;4.10;99.90
35970;DHT22;22448;51.298;6.430;2022-12-07T17:39:24;4.20;99.90
35970;DHT22;22448;51.298;6.430;2022-12-07T17:41:51;4.10;99.90
35970;DHT22;22448;51.298;6.430;2022-12-07T17:44:36;4.10;99.90
35970;DHT22;22448;51.298;6.430;2022-12-07T17:47:03;4.10;99.90
35970;DHT22;22448;51.298;6.430;2022-12-07T17:49:32;4.10;99.90
35970;DHT22;22448;51.298;6.430;2022-12-07T17:51:58;4.10;99.90
35970;DHT22;22448;51.298;6.430;2022-12-07T17:54:44;4.10;99.90
35970;DHT22;22448;51.298;6.430;2022-12-07T17:57:11;4.10;99.90
35970;DHT22;22448;51.298;6.430;2022-12-07T17:59:38;4.10;99.90
35970;DHT22;22448;51.298;6.430;2022-12-07T18:02:05;4.10;99.90
35970;DHT22;22448;51.298;6.430;2022-12-07T18:04:32;4.10;99.90
35970;DHT22;22448;51.298;6.430;2022-12-07T18:06:59;4.10;99.90
35970;DHT22;22448;51.298;6.430;2022-12-07T18:09:26;4.10;99.90
35970;DHT22;22448;51.298;6.430;2022-12-07T18:11:53;4.10;99.90